Idalou, Texas
Current Conditions -  °F | °C
As of 2:53 PM on Thursday 23 Oct 2014 (Local Time) from KLBB Reporting Station
Few Clouds Few Clouds  
Wind Chill: 70°   Ceiling: Unl
Heat Index: 70°   Visibility: 10mi
Dew Point: 58°   Wind: 8mph
Humidity: 65%   Direction: 210°SSW
Pressure: 30.1"   Gusts: NA
Location:  33.67°N, 101.68°W
Report Text: KLBB 231953Z 21007KT 10SM FEW012 FEW250 21/14 A3010 RMK AO2 SLP160 T02110144 $
Loading
Personal Weather Stations






























Interactive Weather Map
Tropical Storm Tracking
New forecast layout! Learn more

10-Day Weather Forecast

Advertisements
Track Severe Weather on mobile